sensor_id;sensor_type;location;lat;lon;timestamp;temperature;humidity
22738;DHT22;11536;50.860;4.286;2023-04-30T00:02:07;10.80;99.90
22738;DHT22;11536;50.860;4.286;2023-04-30T00:04:33;10.80;99.90
22738;DHT22;11536;50.860;4.286;2023-04-30T00:06:58;10.80;99.90
22738;DHT22;11536;50.860;4.286;2023-04-30T00:09:24;10.70;99.90
22738;DHT22;11536;50.860;4.286;2023-04-30T00:11:50;10.70;99.90
22738;DHT22;11536;50.860;4.286;2023-04-30T00:14:15;10.70;99.90
22738;DHT22;11536;50.860;4.286;2023-04-30T00:16:41;10.70;99.90
22738;DHT22;11536;50.860;4.286;2023-04-30T00:19:07;10.70;99.90
22738;DHT22;11536;50.860;4.286;2023-04-30T00:21:33;10.70;99.90
22738;DHT22;11536;50.860;4.286;2023-04-30T00:23:58;10.70;99.90
22738;DHT22;11536;50.860;4.286;2023-04-30T00:26:27;10.80;99.90
22738;DHT22;11536;50.860;4.286;2023-04-30T00:28:52;10.80;99.90
22738;DHT22;11536;50.860;4.286;2023-04-30T00:31:18;10.80;99.90
22738;DHT22;11536;50.860;4.286;2023-04-30T00:33:44;10.90;99.90
22738;DHT22;11536;50.860;4.286;2023-04-30T00:36:09;10.80;99.90
22738;DHT22;11536;50.860;4.286;2023-04-30T00:38:35;10.90;99.90
22738;DHT22;11536;50.860;4.286;2023-04-30T00:41:01;10.90;99.90
22738;DHT22;11536;50.860;4.286;2023-04-30T00:43:26;10.90;99.90
22738;DHT22;11536;50.860;4.286;2023-04-30T00:45:52;10.90;99.90
22738;DHT22;11536;50.860;4.286;2023-04-30T00:48:18;10.80;99.90
22738;DHT22;11536;50.860;4.286;2023-04-30T00:50:44;10.80;99.90
22738;DHT22;11536;50.860;4.286;2023-04-30T00:53:11;10.90;99.90
22738;DHT22;11536;50.860;4.286;2023-04-30T00:55:37;10.90;99.90
22738;DHT22;11536;50.860;4.286;2023-04-30T00:58:04;10.90;99.90
22738;DHT22;11536;50.860;4.286;2023-04-30T01:00:30;10.90;99.90
22738;DHT22;11536;50.860;4.286;2023-04-30T01:02:57;10.90;99.90
22738;DHT22;11536;50.860;4.286;2023-04-30T01:05:23;11.00;99.90
22738;DHT22;11536;50.860;4.286;2023-04-30T01:07:49;10.90;99.90
22738;DHT22;11536;50.860;4.286;2023-04-30T01:10:15;10.90;99.90
22738;DHT22;11536;50.860;4.286;2023-04-30T01:13:16;11.00;99.90
22738;DHT22;11536;50.860;4.286;2023-04-30T01:16:12;11.00;99.90
22738;DHT22;11536;50.860;4.286;2023-04-30T01:18:48;11.00;99.90
22738;DHT22;11536;50.860;4.286;2023-04-30T01:21:17;11.00;99.90
22738;DHT22;11536;50.860;4.286;2023-04-30T01:27:14;11.00;99.90
22738;DHT22;11536;50.860;4.286;2023-04-30T01:29:42;10.90;99.90
22738;DHT22;11536;50.860;4.286;2023-04-30T01:32:09;10.90;99.90
22738;DHT22;11536;50.860;4.286;2023-04-30T01:34:36;10.90;99.90
22738;DHT22;11536;50.860;4.286;2023-04-30T01:42:24;10.90;99.90
22738;DHT22;11536;50.860;4.286;2023-04-30T01:48:33;11.00;99.90
22738;DHT22;11536;50.860;4.286;2023-04-30T01:51:31;10.90;99.90
22738;DHT22;11536;50.860;4.286;2023-04-30T01:54:12;10.90;99.90
22738;DHT22;11536;50.860;4.286;2023-04-30T01:56:47;10.90;99.90
22738;DHT22;11536;50.860;4.286;2023-04-30T01:59:14;10.90;99.90
22738;DHT22;11536;50.860;4.286;2023-04-30T02:01:40;10.90;99.90
22738;DHT22;11536;50.860;4.286;2023-04-30T02:04:06;10.90;99.90
22738;DHT22;11536;50.860;4.286;2023-04-30T02:06:32;10.90;99.90
22738;DHT22;11536;50.860;4.286;2023-04-30T02:08:57;10.80;99.90
22738;DHT22;11536;50.860;4.286;2023-04-30T02:11:30;10.80;99.90
22738;DHT22;11536;50.860;4.286;2023-04-30T02:13:56;10.90;99.90
22738;DHT22;11536;50.860;4.286;2023-04-30T02:16:22;10.80;99.90
22738;DHT22;11536;50.860;4.286;2023-04-30T02:18:48;10.90;99.90
22738;DHT22;11536;50.860;4.286;2023-04-30T02:21:14;10.80;99.90
22738;DHT22;11536;50.860;4.286;2023-04-30T02:23:40;10.80;99.90
22738;DHT22;11536;50.860;4.286;2023-04-30T02:26:06;10.80;99.90
22738;DHT22;11536;50.860;4.286;2023-04-30T02:28:31;10.70;99.90
22738;DHT22;11536;50.860;4.286;2023-04-30T02:30:57;10.70;99.90
22738;DHT22;11536;50.860;4.286;2023-04-30T02:33:23;10.60;99.90
22738;DHT22;11536;50.860;4.286;2023-04-30T02:35:48;10.60;99.90
22738;DHT22;11536;50.860;4.286;2023-04-30T02:38:15;10.60;99.90
22738;DHT22;11536;50.860;4.286;2023-04-30T02:40:40;10.50;99.90
22738;DHT22;11536;50.860;4.286;2023-04-30T02:43:09;10.50;99.90
22738;DHT22;11536;50.860;4.286;2023-04-30T02:45:35;10.60;99.90
22738;DHT22;11536;50.860;4.286;2023-04-30T02:48:00;10.60;99.90
22738;DHT22;11536;50.860;4.286;2023-04-30T02:50:26;10.60;99.90
22738;DHT22;11536;50.860;4.286;2023-04-30T02:52:51;10.60;99.90
22738;DHT22;11536;50.860;4.286;2023-04-30T02:55:17;10.60;99.90
22738;DHT22;11536;50.860;4.286;2023-04-30T02:57:43;10.60;99.90
22738;DHT22;11536;50.860;4.286;2023-04-30T03:00:09;10.60;99.90
22738;DHT22;11536;50.860;4.286;2023-04-30T03:02:35;10.50;99.90
22738;DHT22;11536;50.860;4.286;2023-04-30T03:05:00;10.50;99.90
22738;DHT22;11536;50.860;4.286;2023-04-30T03:07:26;10.50;99.90
22738;DHT22;11536;50.860;4.286;2023-04-30T03:09:52;10.50;99.90
22738;DHT22;11536;50.860;4.286;2023-04-30T03:12:17;10.50;99.90
22738;DHT22;11536;50.860;4.286;2023-04-30T03:14:43;10.60;99.90
22738;DHT22;11536;50.860;4.286;2023-04-30T03:17:08;10.50;99.90
22738;DHT22;11536;50.860;4.286;2023-04-30T03:19:34;10.50;99.90
22738;DHT22;11536;50.860;4.286;2023-04-30T03:22:00;10.50;99.90
22738;DHT22;11536;50.860;4.286;2023-04-30T03:24:25;10.50;99.90
22738;DHT22;11536;50.860;4.286;2023-04-30T03:26:51;10.50;99.90
22738;DHT22;11536;50.860;4.286;2023-04-30T03:29:17;10.50;99.90
22738;DHT22;11536;50.860;4.286;2023-04-30T03:31:42;10.50;99.90
22738;DHT22;11536;50.860;4.286;2023-04-30T03:34:08;10.40;99.90
22738;DHT22;11536;50.860;4.286;2023-04-30T03:36:34;10.50;99.90
22738;DHT22;11536;50.860;4.286;2023-04-30T03:39:00;10.40;99.90
22738;DHT22;11536;50.860;4.286;2023-04-30T03:41:26;10.40;99.90
22738;DHT22;11536;50.860;4.286;2023-04-30T03:43:52;10.40;99.90
22738;DHT22;11536;50.860;4.286;2023-04-30T03:46:18;10.40;99.90
22738;DHT22;11536;50.860;4.286;2023-04-30T03:48:44;10.40;99.90
22738;DHT22;11536;50.860;4.286;2023-04-30T03:51:10;10.40;99.90
22738;DHT22;11536;50.860;4.286;2023-04-30T03:53:35;10.30;99.90
22738;DHT22;11536;50.860;4.286;2023-04-30T03:56:02;10.30;99.90
22738;DHT22;11536;50.860;4.286;2023-04-30T03:58:28;10.20;99.90
22738;DHT22;11536;50.860;4.286;2023-04-30T04:00:54;10.20;99.90
22738;DHT22;11536;50.860;4.286;2023-04-30T04:03:20;10.10;99.90
22738;DHT22;11536;50.860;4.286;2023-04-30T04:05:46;10.00;99.90
22738;DHT22;11536;50.860;4.286;2023-04-30T04:08:12;10.00;99.90
22738;DHT22;11536;50.860;4.286;2023-04-30T04:10:38;10.00;99.90
22738;DHT22;11536;50.860;4.286;2023-04-30T04:13:07;10.00;99.90
22738;DHT22;11536;50.860;4.286;2023-04-30T04:15:33;9.90;99.90
22738;DHT22;11536;50.860;4.286;2023-04-30T04:17:58;9.90;99.90
22738;DHT22;11536;50.860;4.286;2023-04-30T04:20:24;10.00;99.90
22738;DHT22;11536;50.860;4.286;2023-04-30T04:22:50;10.00;99.90
22738;DHT22;11536;50.860;4.286;2023-04-30T04:25:15;10.00;99.90
22738;DHT22;11536;50.860;4.286;2023-04-30T04:27:42;10.10;99.90
22738;DHT22;11536;50.860;4.286;2023-04-30T04:30:08;10.10;99.90
22738;DHT22;11536;50.860;4.286;2023-04-30T04:32:34;10.10;99.90
22738;DHT22;11536;50.860;4.286;2023-04-30T04:35:12;10.10;99.90
22738;DHT22;11536;50.860;4.286;2023-04-30T04:37:37;10.10;99.90
22738;DHT22;11536;50.860;4.286;2023-04-30T04:40:03;10.10;99.90
22738;DHT22;11536;50.860;4.286;2023-04-30T04:42:29;10.10;99.90
22738;DHT22;11536;50.860;4.286;2023-04-30T04:44:56;10.10;99.90
22738;DHT22;11536;50.860;4.286;2023-04-30T04:47:22;10.10;99.90
22738;DHT22;11536;50.860;4.286;2023-04-30T04:49:47;10.10;99.90
22738;DHT22;11536;50.860;4.286;2023-04-30T04:52:13;10.10;99.90
22738;DHT22;11536;50.860;4.286;2023-04-30T04:54:38;10.10;99.90
22738;DHT22;11536;50.860;4.286;2023-04-30T04:57:04;10.10;99.90
22738;DHT22;11536;50.860;4.286;2023-04-30T04:59:30;10.10;99.90
22738;DHT22;11536;50.860;4.286;2023-04-30T05:01:55;10.10;99.90
22738;DHT22;11536;50.860;4.286;2023-04-30T05:04:21;10.10;99.90
22738;DHT22;11536;50.860;4.286;2023-04-30T05:06:47;10.10;99.90
22738;DHT22;11536;50.860;4.286;2023-04-30T05:09:12;10.10;99.90
22738;DHT22;11536;50.860;4.286;2023-04-30T05:11:38;10.10;99.90
22738;DHT22;11536;50.860;4.286;2023-04-30T05:14:06;10.10;99.90
22738;DHT22;11536;50.860;4.286;2023-04-30T05:16:31;10.10;99.90
22738;DHT22;11536;50.860;4.286;2023-04-30T05:18:57;10.10;99.90
22738;DHT22;11536;50.860;4.286;2023-04-30T05:21:23;10.00;99.90
22738;DHT22;11536;50.860;4.286;2023-04-30T05:23:50;10.00;99.90
22738;DHT22;11536;50.860;4.286;2023-04-30T05:26:16;10.00;99.90
22738;DHT22;11536;50.860;4.286;2023-04-30T05:28:41;10.00;99.90
22738;DHT22;11536;50.860;4.286;2023-04-30T05:31:07;10.10;99.90
22738;DHT22;11536;50.860;4.286;2023-04-30T05:33:33;10.10;99.90
22738;DHT22;11536;50.860;4.286;2023-04-30T05:35:59;10.10;99.90
22738;DHT22;11536;50.860;4.286;2023-04-30T05:38:24;10.10;99.90
22738;DHT22;11536;50.860;4.286;2023-04-30T05:40:50;10.10;99.90
22738;DHT22;11536;50.860;4.286;2023-04-30T05:43:16;10.10;99.90
22738;DHT22;11536;50.860;4.286;2023-04-30T05:45:41;10.00;99.90
22738;DHT22;11536;50.860;4.286;2023-04-30T05:48:07;10.00;99.90
22738;DHT22;11536;50.860;4.286;2023-04-30T05:50:32;10.00;99.90
22738;DHT22;11536;50.860;4.286;2023-04-30T05:52:59;10.00;99.90
22738;DHT22;11536;50.860;4.286;2023-04-30T05:55:24;10.10;99.90
22738;DHT22;11536;50.860;4.286;2023-04-30T05:57:50;10.10;99.90
22738;DHT22;11536;50.860;4.286;2023-04-30T06:00:16;10.10;99.90
22738;DHT22;11536;50.860;4.286;2023-04-30T06:02:41;10.20;99.90
22738;DHT22;11536;50.860;4.286;2023-04-30T06:05:07;10.20;99.90
22738;DHT22;11536;50.860;4.286;2023-04-30T06:07:33;10.30;99.90
22738;DHT22;11536;50.860;4.286;2023-04-30T06:09:59;10.30;99.90
22738;DHT22;11536;50.860;4.286;2023-04-30T06:12:24;10.40;99.90
22738;DHT22;11536;50.860;4.286;2023-04-30T06:14:51;10.40;99.90
22738;DHT22;11536;50.860;4.286;2023-04-30T06:17:17;10.50;99.90
22738;DHT22;11536;50.860;4.286;2023-04-30T06:19:42;10.60;99.90
22738;DHT22;11536;50.860;4.286;2023-04-30T06:22:08;10.60;99.90
22738;DHT22;11536;50.860;4.286;2023-04-30T06:24:33;10.70;99.90
22738;DHT22;11536;50.860;4.286;2023-04-30T06:26:59;10.80;99.90
22738;DHT22;11536;50.860;4.286;2023-04-30T06:29:25;10.90;99.90
22738;DHT22;11536;50.860;4.286;2023-04-30T06:31:51;11.00;99.90
22738;DHT22;11536;50.860;4.286;2023-04-30T06:34:18;11.10;99.90
22738;DHT22;11536;50.860;4.286;2023-04-30T06:36:44;11.20;99.90
22738;DHT22;11536;50.860;4.286;2023-04-30T06:39:09;11.20;99.90
22738;DHT22;11536;50.860;4.286;2023-04-30T06:41:35;11.30;99.90
22738;DHT22;11536;50.860;4.286;2023-04-30T06:44:01;11.40;99.90
22738;DHT22;11536;50.860;4.286;2023-04-30T06:46:27;11.40;99.90
22738;DHT22;11536;50.860;4.286;2023-04-30T06:48:52;11.50;99.90
22738;DHT22;11536;50.860;4.286;2023-04-30T06:51:18;11.50;99.90
22738;DHT22;11536;50.860;4.286;2023-04-30T06:53:45;11.60;99.90
22738;DHT22;11536;50.860;4.286;2023-04-30T06:56:10;11.70;99.90
22738;DHT22;11536;50.860;4.286;2023-04-30T06:58:36;11.70;99.90
22738;DHT22;11536;50.860;4.286;2023-04-30T07:01:02;11.80;99.90
22738;DHT22;11536;50.860;4.286;2023-04-30T07:03:28;11.90;99.90
22738;DHT22;11536;50.860;4.286;2023-04-30T07:05:54;11.90;99.90
22738;DHT22;11536;50.860;4.286;2023-04-30T07:08:20;12.00;99.90
22738;DHT22;11536;50.860;4.286;2023-04-30T07:10:46;12.00;99.90
22738;DHT22;11536;50.860;4.286;2023-04-30T07:13:12;12.10;99.90
22738;DHT22;11536;50.860;4.286;2023-04-30T07:15:37;12.10;99.90
22738;DHT22;11536;50.860;4.286;2023-04-30T07:18:03;12.10;99.90
22738;DHT22;11536;50.860;4.286;2023-04-30T07:20:29;12.10;99.90
22738;DHT22;11536;50.860;4.286;2023-04-30T07:22:55;12.20;99.90
22738;DHT22;11536;50.860;4.286;2023-04-30T07:25:20;12.30;99.90
22738;DHT22;11536;50.860;4.286;2023-04-30T07:27:46;12.30;99.90
22738;DHT22;11536;50.860;4.286;2023-04-30T07:30:11;12.40;99.90
22738;DHT22;11536;50.860;4.286;2023-04-30T07:32:39;12.40;99.90
22738;DHT22;11536;50.860;4.286;2023-04-30T07:35:06;12.50;99.90
22738;DHT22;11536;50.860;4.286;2023-04-30T07:37:32;12.50;99.90
22738;DHT22;11536;50.860;4.286;2023-04-30T07:39:57;12.50;99.90
22738;DHT22;11536;50.860;4.286;2023-04-30T07:42:23;12.60;99.90
22738;DHT22;11536;50.860;4.286;2023-04-30T07:44:49;12.70;99.90
22738;DHT22;11536;50.860;4.286;2023-04-30T07:47:14;12.70;99.90
22738;DHT22;11536;50.860;4.286;2023-04-30T07:49:40;12.80;99.90
22738;DHT22;11536;50.860;4.286;2023-04-30T07:52:06;12.90;99.90
22738;DHT22;11536;50.860;4.286;2023-04-30T07:54:35;12.90;99.90
22738;DHT22;11536;50.860;4.286;2023-04-30T07:57:03;13.00;99.90
22738;DHT22;11536;50.860;4.286;2023-04-30T07:59:29;13.10;99.90
22738;DHT22;11536;50.860;4.286;2023-04-30T08:01:55;13.10;99.90
22738;DHT22;11536;50.860;4.286;2023-04-30T08:04:21;13.20;99.90
22738;DHT22;11536;50.860;4.286;2023-04-30T08:06:46;13.30;99.90
22738;DHT22;11536;50.860;4.286;2023-04-30T08:09:12;13.40;99.90
22738;DHT22;11536;50.860;4.286;2023-04-30T08:11:40;13.50;99.90
22738;DHT22;11536;50.860;4.286;2023-04-30T08:14:06;13.60;99.90
22738;DHT22;11536;50.860;4.286;2023-04-30T08:16:32;13.60;99.90
22738;DHT22;11536;50.860;4.286;2023-04-30T08:18:58;13.70;99.90
22738;DHT22;11536;50.860;4.286;2023-04-30T08:21:24;13.80;99.90
22738;DHT22;11536;50.860;4.286;2023-04-30T08:23:53;13.90;99.90
22738;DHT22;11536;50.860;4.286;2023-04-30T08:26:18;14.00;99.90
22738;DHT22;11536;50.860;4.286;2023-04-30T08:28:44;14.00;99.90
22738;DHT22;11536;50.860;4.286;2023-04-30T08:31:10;14.00;99.90
22738;DHT22;11536;50.860;4.286;2023-04-30T08:33:36;14.10;99.90
22738;DHT22;11536;50.860;4.286;2023-04-30T08:36:02;14.10;99.90
22738;DHT22;11536;50.860;4.286;2023-04-30T08:38:28;14.20;99.90
22738;DHT22;11536;50.860;4.286;2023-04-30T08:41:12;14.30;99.90
22738;DHT22;11536;50.860;4.286;2023-04-30T08:43:42;14.30;99.90
22738;DHT22;11536;50.860;4.286;2023-04-30T08:46:11;14.40;99.90
22738;DHT22;11536;50.860;4.286;2023-04-30T08:48:39;14.40;99.90
22738;DHT22;11536;50.860;4.286;2023-04-30T08:51:05;14.50;99.90
22738;DHT22;11536;50.860;4.286;2023-04-30T08:53:34;14.60;99.90
22738;DHT22;11536;50.860;4.286;2023-04-30T08:56:00;14.70;99.90
22738;DHT22;11536;50.860;4.286;2023-04-30T08:58:27;14.80;99.90
22738;DHT22;11536;50.860;4.286;2023-04-30T09:00:53;14.80;99.90
22738;DHT22;11536;50.860;4.286;2023-04-30T09:03:18;14.90;99.90
22738;DHT22;11536;50.860;4.286;2023-04-30T09:05:46;14.90;99.90
22738;DHT22;11536;50.860;4.286;2023-04-30T09:08:16;14.90;99.90
22738;DHT22;11536;50.860;4.286;2023-04-30T09:10:42;15.00;99.90
22738;DHT22;11536;50.860;4.286;2023-04-30T09:13:09;15.00;99.90
22738;DHT22;11536;50.860;4.286;2023-04-30T09:15:37;15.10;99.90
22738;DHT22;11536;50.860;4.286;2023-04-30T09:20:34;15.10;99.90
22738;DHT22;11536;50.860;4.286;2023-04-30T09:23:09;15.20;99.90
22738;DHT22;11536;50.860;4.286;2023-04-30T09:25:42;15.30;99.90
22738;DHT22;11536;50.860;4.286;2023-04-30T09:28:11;15.30;99.90
22738;DHT22;11536;50.860;4.286;2023-04-30T09:30:38;15.30;99.90
22738;DHT22;11536;50.860;4.286;2023-04-30T09:33:05;15.40;99.90
22738;DHT22;11536;50.860;4.286;2023-04-30T09:35:36;15.40;99.90
22738;DHT22;11536;50.860;4.286;2023-04-30T09:38:03;15.50;99.90
22738;DHT22;11536;50.860;4.286;2023-04-30T09:40:36;15.50;99.90
22738;DHT22;11536;50.860;4.286;2023-04-30T09:43:02;15.60;99.90
22738;DHT22;11536;50.860;4.286;2023-04-30T09:45:47;15.70;99.90
22738;DHT22;11536;50.860;4.286;2023-04-30T09:50:44;15.70;99.90
22738;DHT22;11536;50.860;4.286;2023-04-30T09:53:12;15.80;99.90
22738;DHT22;11536;50.860;4.286;2023-04-30T09:55:42;15.80;99.90
22738;DHT22;11536;50.860;4.286;2023-04-30T09:58:09;15.90;99.90
22738;DHT22;11536;50.860;4.286;2023-04-30T10:00:35;15.90;99.90
22738;DHT22;11536;50.860;4.286;2023-04-30T10:03:06;16.00;99.90
22738;DHT22;11536;50.860;4.286;2023-04-30T10:05:39;16.00;99.90
22738;DHT22;11536;50.860;4.286;2023-04-30T10:10:44;16.00;99.90
22738;DHT22;11536;50.860;4.286;2023-04-30T10:13:14;16.00;99.90
22738;DHT22;11536;50.860;4.286;2023-04-30T10:15:48;15.90;99.90
22738;DHT22;11536;50.860;4.286;2023-04-30T10:18:22;16.00;99.90
22738;DHT22;11536;50.860;4.286;2023-04-30T10:20:52;16.00;99.90
22738;DHT22;11536;50.860;4.286;2023-04-30T10:23:18;16.00;99.90
22738;DHT22;11536;50.860;4.286;2023-04-30T10:25:46;16.00;99.90
22738;DHT22;11536;50.860;4.286;2023-04-30T10:28:13;16.10;99.90
22738;DHT22;11536;50.860;4.286;2023-04-30T10:30:40;16.20;99.90
22738;DHT22;11536;50.860;4.286;2023-04-30T10:33:25;16.20;99.90
22738;DHT22;11536;50.860;4.286;2023-04-30T10:35:59;16.30;99.90
22738;DHT22;11536;50.860;4.286;2023-04-30T10:38:29;16.30;99.90
22738;DHT22;11536;50.860;4.286;2023-04-30T10:41:00;16.30;99.90
22738;DHT22;11536;50.860;4.286;2023-04-30T10:43:28;16.40;99.90
22738;DHT22;11536;50.860;4.286;2023-04-30T10:45:56;16.50;99.90
22738;DHT22;11536;50.860;4.286;2023-04-30T10:48:25;16.50;99.90
22738;DHT22;11536;50.860;4.286;2023-04-30T10:50:56;16.60;99.90
22738;DHT22;11536;50.860;4.286;2023-04-30T10:53:22;16.60;99.90
22738;DHT22;11536;50.860;4.286;2023-04-30T10:56:02;16.70;99.90
22738;DHT22;11536;50.860;4.286;2023-04-30T10:58:33;16.80;99.90
22738;DHT22;11536;50.860;4.286;2023-04-30T11:01:12;16.80;99.90
22738;DHT22;11536;50.860;4.286;2023-04-30T11:04:02;16.80;99.90
22738;DHT22;11536;50.860;4.286;2023-04-30T11:06:50;16.90;99.90
22738;DHT22;11536;50.860;4.286;2023-04-30T11:12:03;17.00;99.90
22738;DHT22;11536;50.860;4.286;2023-04-30T11:14:31;17.10;99.90
22738;DHT22;11536;50.860;4.286;2023-04-30T11:16:59;17.10;99.90
22738;DHT22;11536;50.860;4.286;2023-04-30T11:19:27;17.10;99.90
22738;DHT22;11536;50.860;4.286;2023-04-30T11:25:21;17.20;99.90
22738;DHT22;11536;50.860;4.286;2023-04-30T11:27:41;17.30;99.90
22738;DHT22;11536;50.860;4.286;2023-04-30T11:30:11;17.30;99.90
22738;DHT22;11536;50.860;4.286;2023-04-30T11:32:38;17.30;99.90
22738;DHT22;11536;50.860;4.286;2023-04-30T11:35:06;17.40;99.90
22738;DHT22;11536;50.860;4.286;2023-04-30T11:37:32;17.40;99.90
22738;DHT22;11536;50.860;4.286;2023-04-30T11:40:08;17.40;99.90
22738;DHT22;11536;50.860;4.286;2023-04-30T11:42:42;17.40;99.90
22738;DHT22;11536;50.860;4.286;2023-04-30T11:45:16;17.30;99.90
22738;DHT22;11536;50.860;4.286;2023-04-30T11:47:49;17.40;99.90
22738;DHT22;11536;50.860;4.286;2023-04-30T11:50:18;17.50;99.90
22738;DHT22;11536;50.860;4.286;2023-04-30T11:52:49;17.50;99.90
22738;DHT22;11536;50.860;4.286;2023-04-30T11:55:17;17.60;99.90
22738;DHT22;11536;50.860;4.286;2023-04-30T11:57:45;17.60;99.90
22738;DHT22;11536;50.860;4.286;2023-04-30T12:00:20;17.70;99.90
22738;DHT22;11536;50.860;4.286;2023-04-30T12:02:49;17.70;99.90
22738;DHT22;11536;50.860;4.286;2023-04-30T12:05:20;17.70;99.90
22738;DHT22;11536;50.860;4.286;2023-04-30T12:08:05;17.80;99.90
22738;DHT22;11536;50.860;4.286;2023-04-30T12:10:33;18.00;99.90
22738;DHT22;11536;50.860;4.286;2023-04-30T12:13:02;18.10;99.90
22738;DHT22;11536;50.860;4.286;2023-04-30T12:15:28;18.10;99.90
22738;DHT22;11536;50.860;4.286;2023-04-30T12:17:58;18.00;99.90
22738;DHT22;11536;50.860;4.286;2023-04-30T12:20:28;18.00;99.90
22738;DHT22;11536;50.860;4.286;2023-04-30T12:22:56;18.00;99.90
22738;DHT22;11536;50.860;4.286;2023-04-30T12:25:23;18.10;99.90
22738;DHT22;11536;50.860;4.286;2023-04-30T12:27:50;18.10;99.90
22738;DHT22;11536;50.860;4.286;2023-04-30T12:30:20;18.20;99.90
22738;DHT22;11536;50.860;4.286;2023-04-30T12:32:49;18.20;99.90
22738;DHT22;11536;50.860;4.286;2023-04-30T12:35:19;18.30;99.90
22738;DHT22;11536;50.860;4.286;2023-04-30T12:37:50;18.40;99.90
22738;DHT22;11536;50.860;4.286;2023-04-30T12:40:18;18.70;99.90
22738;DHT22;11536;50.860;4.286;2023-04-30T12:42:44;18.80;99.90
22738;DHT22;11536;50.860;4.286;2023-04-30T12:45:11;18.80;99.90
22738;DHT22;11536;50.860;4.286;2023-04-30T12:47:41;18.90;99.90
22738;DHT22;11536;50.860;4.286;2023-04-30T12:50:10;18.90;99.90
22738;DHT22;11536;50.860;4.286;2023-04-30T12:52:37;19.00;99.90
22738;DHT22;11536;50.860;4.286;2023-04-30T12:55:19;19.00;99.90
22738;DHT22;11536;50.860;4.286;2023-04-30T13:03:07;19.10;99.90
22738;DHT22;11536;50.860;4.286;2023-04-30T13:05:33;19.20;99.90
22738;DHT22;11536;50.860;4.286;2023-04-30T13:08:02;19.30;99.90
22738;DHT22;11536;50.860;4.286;2023-04-30T13:10:31;19.30;99.90
22738;DHT22;11536;50.860;4.286;2023-04-30T13:12:57;19.40;99.90
22738;DHT22;11536;50.860;4.286;2023-04-30T13:15:22;19.60;99.90
22738;DHT22;11536;50.860;4.286;2023-04-30T13:17:48;19.70;99.90
22738;DHT22;11536;50.860;4.286;2023-04-30T13:20:17;19.80;99.90
22738;DHT22;11536;50.860;4.286;2023-04-30T13:22:43;19.90;99.90
22738;DHT22;11536;50.860;4.286;2023-04-30T13:25:09;19.90;99.90
22738;DHT22;11536;50.860;4.286;2023-04-30T13:27:35;20.00;99.90
22738;DHT22;11536;50.860;4.286;2023-04-30T13:30:01;20.00;99.90
22738;DHT22;11536;50.860;4.286;2023-04-30T13:32:47;20.10;99.90
22738;DHT22;11536;50.860;4.286;2023-04-30T13:35:13;20.10;99.90
22738;DHT22;11536;50.860;4.286;2023-04-30T13:37:39;20.10;99.90
22738;DHT22;11536;50.860;4.286;2023-04-30T13:40:06;20.00;99.90
22738;DHT22;11536;50.860;4.286;2023-04-30T13:42:32;19.90;99.90
22738;DHT22;11536;50.860;4.286;2023-04-30T13:44:58;20.00;99.90
22738;DHT22;11536;50.860;4.286;2023-04-30T13:47:24;20.10;99.70
22738;DHT22;11536;50.860;4.286;2023-04-30T13:49:49;20.00;99.40
22738;DHT22;11536;50.860;4.286;2023-04-30T13:52:15;20.00;99.90
22738;DHT22;11536;50.860;4.286;2023-04-30T13:54:41;19.90;99.90
22738;DHT22;11536;50.860;4.286;2023-04-30T13:57:06;19.90;99.90
22738;DHT22;11536;50.860;4.286;2023-04-30T13:59:32;19.90;99.90
22738;DHT22;11536;50.860;4.286;2023-04-30T14:01:59;20.10;99.90
22738;DHT22;11536;50.860;4.286;2023-04-30T14:04:25;20.30;99.90
22738;DHT22;11536;50.860;4.286;2023-04-30T14:06:50;20.40;99.30
22738;DHT22;11536;50.860;4.286;2023-04-30T14:09:17;20.50;99.50
22738;DHT22;11536;50.860;4.286;2023-04-30T14:11:42;20.40;98.80
22738;DHT22;11536;50.860;4.286;2023-04-30T14:14:08;20.60;99.90
22738;DHT22;11536;50.860;4.286;2023-04-30T14:16:34;20.80;99.90
22738;DHT22;11536;50.860;4.286;2023-04-30T14:19:00;21.10;99.90
22738;DHT22;11536;50.860;4.286;2023-04-30T14:21:25;21.30;99.90
22738;DHT22;11536;50.860;4.286;2023-04-30T14:23:53;21.30;99.00
22738;DHT22;11536;50.860;4.286;2023-04-30T14:26:19;21.20;99.10
22738;DHT22;11536;50.860;4.286;2023-04-30T14:28:46;20.90;97.30
22738;DHT22;11536;50.860;4.286;2023-04-30T14:31:11;20.70;95.90
22738;DHT22;11536;50.860;4.286;2023-04-30T14:33:37;20.60;97.90
22738;DHT22;11536;50.860;4.286;2023-04-30T14:36:03;20.50;98.90
22738;DHT22;11536;50.860;4.286;2023-04-30T14:38:29;20.60;99.90
22738;DHT22;11536;50.860;4.286;2023-04-30T14:40:55;20.80;99.90
22738;DHT22;11536;50.860;4.286;2023-04-30T14:43:20;20.90;98.70
22738;DHT22;11536;50.860;4.286;2023-04-30T14:45:46;20.90;98.30
22738;DHT22;11536;50.860;4.286;2023-04-30T14:48:12;20.80;99.00
22738;DHT22;11536;50.860;4.286;2023-04-30T14:50:37;20.60;98.30
22738;DHT22;11536;50.860;4.286;2023-04-30T14:53:04;20.50;97.10
22738;DHT22;11536;50.860;4.286;2023-04-30T14:55:30;20.40;98.20
22738;DHT22;11536;50.860;4.286;2023-04-30T14:57:58;20.40;98.40
22738;DHT22;11536;50.860;4.286;2023-04-30T15:00:23;20.40;98.60
22738;DHT22;11536;50.860;4.286;2023-04-30T15:02:49;20.50;98.10
22738;DHT22;11536;50.860;4.286;2023-04-30T15:05:15;20.40;98.60
22738;DHT22;11536;50.860;4.286;2023-04-30T15:07:41;20.50;98.20
22738;DHT22;11536;50.860;4.286;2023-04-30T15:10:07;20.40;97.10
22738;DHT22;11536;50.860;4.286;2023-04-30T15:12:34;20.40;97.20
22738;DHT22;11536;50.860;4.286;2023-04-30T15:15:00;20.40;97.00
22738;DHT22;11536;50.860;4.286;2023-04-30T15:17:27;20.40;98.00
22738;DHT22;11536;50.860;4.286;2023-04-30T15:19:53;20.30;97.00
22738;DHT22;11536;50.860;4.286;2023-04-30T15:22:20;20.30;96.80
22738;DHT22;11536;50.860;4.286;2023-04-30T15:24:46;20.30;99.00
22738;DHT22;11536;50.860;4.286;2023-04-30T15:27:12;20.40;99.50
22738;DHT22;11536;50.860;4.286;2023-04-30T15:29:38;20.40;98.20
22738;DHT22;11536;50.860;4.286;2023-04-30T15:32:05;20.40;97.70
22738;DHT22;11536;50.860;4.286;2023-04-30T15:34:30;20.30;97.90
22738;DHT22;11536;50.860;4.286;2023-04-30T15:36:56;20.30;97.50
22738;DHT22;11536;50.860;4.286;2023-04-30T15:39:23;20.20;97.60
22738;DHT22;11536;50.860;4.286;2023-04-30T15:41:49;20.10;97.00
22738;DHT22;11536;50.860;4.286;2023-04-30T15:44:15;20.00;96.70
22738;DHT22;11536;50.860;4.286;2023-04-30T15:46:40;20.00;97.60
22738;DHT22;11536;50.860;4.286;2023-04-30T15:49:06;20.00;98.40
22738;DHT22;11536;50.860;4.286;2023-04-30T15:51:32;20.00;98.40
22738;DHT22;11536;50.860;4.286;2023-04-30T15:53:58;20.00;99.20
22738;DHT22;11536;50.860;4.286;2023-04-30T15:56:24;20.00;97.90
22738;DHT22;11536;50.860;4.286;2023-04-30T15:58:53;19.90;97.60
22738;DHT22;11536;50.860;4.286;2023-04-30T16:01:20;19.90;98.10
22738;DHT22;11536;50.860;4.286;2023-04-30T16:03:47;19.90;97.90